Etusivu
METAR-TAF:

METAR-TAF

Lentoasemat :

Al-Ubayyid, Sudan

Leveyspiiri: 13-10N, Pituuspiiri: 030-14E, korkeus merenpinnasta: 574 m

METAR: puuttuu

Aika: 15:26 (13:26 UTC)

Sääennuste

Tämä raportti tehtiin 8 tuntia ja 26 minuuttia sitten, kello 05.00 UTC
Ennuste voimassa 06. päivästä klo 06 UTC - 07. päivään klo 12 UTC
Tuuli 8 kn pohjoisesta
Näkyvyys 10 km tai enemmän
ei pilviä alle 1500 m:ssä eikä cumulonimbus-pilviä
Ajoittain
06. päivästä klo 06 UTC - 06. päivään klo 10 UTC
Tuuli 8 kn etelästä/lounaasta

TAF: HSOB 060500Z 0606/0712 36008KT CAVOK TEMPO 0606/0610 21008KT

Säähavainnot ja -ennusteet yli 4000 lentoasemalta (METAR- ja TAF-raportit).

Käytössä olevat sääasemat on merkitty karttaan keltaisilla ja punaisilla pisteillä.

Aseta hiiri pisteen päälle nähdäksesi sääaseman nimen.

Klikkaa sitten nähdäksesi säähavainnot ja -ennusteet.

Kartan vaihtaminen: klikkaa mustalla rastilla varustettuja vihreitä pisteitä, niin voit zoomata sisään; viivalla varustettua vihreää pistettä, niin voit zoomata ulos tai vihreitä nuolia, niin pääset viereisille kartoille.


METAR-TAF: